sensor_id;sensor_type;location;lat;lon;timestamp;P1;P2;P0
69349;PMS5003;64554;43.452;4.934;2023-01-30T00:00:35;54.20;44.00;24.40
69349;PMS5003;64554;43.452;4.934;2023-01-30T00:03:02;63.50;49.25;27.50
69349;PMS5003;64554;43.452;4.934;2023-01-30T00:05:29;56.75;44.00;26.00
69349;PMS5003;64554;43.452;4.934;2023-01-30T00:07:55;54.60;44.80;26.60
69349;PMS5003;64554;43.452;4.934;2023-01-30T00:10:22;55.00;45.00;26.00
69349;PMS5003;64554;43.452;4.934;2023-01-30T00:12:51;54.50;45.50;26.00
69349;PMS5003;64554;43.452;4.934;2023-01-30T00:15:17;54.00;45.25;26.00
69349;PMS5003;64554;43.452;4.934;2023-01-30T00:17:44;53.20;42.80;24.60
69349;PMS5003;64554;43.452;4.934;2023-01-30T00:20:11;53.00;42.00;26.00
69349;PMS5003;64554;43.452;4.934;2023-01-30T00:22:40;56.00;47.25;27.00
69349;PMS5003;64554;43.452;4.934;2023-01-30T00:25:17;55.50;45.00;26.50
69349;PMS5003;64554;43.452;4.934;2023-01-30T00:27:44;55.60;43.20;26.00
69349;PMS5003;64554;43.452;4.934;2023-01-30T00:30:10;46.40;40.40;24.80
69349;PMS5003;64554;43.452;4.934;2023-01-30T00:32:37;53.50;43.00;25.00
69349;PMS5003;64554;43.452;4.934;2023-01-30T00:35:04;49.75;42.50;24.00
69349;PMS5003;64554;43.452;4.934;2023-01-30T00:37:32;45.00;39.60;24.60
69349;PMS5003;64554;43.452;4.934;2023-01-30T00:39:58;46.60;38.80;24.40
69349;PMS5003;64554;43.452;4.934;2023-01-30T00:42:25;42.50;38.50;22.50
69349;PMS5003;64554;43.452;4.934;2023-01-30T00:45:10;55.60;43.20;25.80
69349;PMS5003;64554;43.452;4.934;2023-01-30T00:47:56;48.75;38.00;22.00
69349;PMS5003;64554;43.452;4.934;2023-01-30T00:50:23;45.75;40.25;22.75
69349;PMS5003;64554;43.452;4.934;2023-01-30T00:52:49;50.67;43.33;24.33
69349;PMS5003;64554;43.452;4.934;2023-01-30T00:55:16;50.80;42.60;22.40
69349;PMS5003;64554;43.452;4.934;2023-01-30T00:57:43;44.80;38.00;22.00
69349;PMS5003;64554;43.452;4.934;2023-01-30T01:00:10;50.00;40.25;22.00
69349;PMS5003;64554;43.452;4.934;2023-01-30T01:02:37;47.00;37.75;22.50
69349;PMS5003;64554;43.452;4.934;2023-01-30T01:05:03;48.50;39.00;22.00
69349;PMS5003;64554;43.452;4.934;2023-01-30T01:07:30;47.50;40.75;23.00
69349;PMS5003;64554;43.452;4.934;2023-01-30T01:09:57;53.00;42.50;22.75
69349;PMS5003;64554;43.452;4.934;2023-01-30T01:12:24;46.25;40.50;22.00
69349;PMS5003;64554;43.452;4.934;2023-01-30T01:14:51;51.20;42.60;24.00
69349;PMS5003;64554;43.452;4.934;2023-01-30T01:17:17;51.00;40.25;24.25
69349;PMS5003;64554;43.452;4.934;2023-01-30T01:19:44;46.50;40.50;21.00
69349;PMS5003;64554;43.452;4.934;2023-01-30T01:22:10;44.50;39.75;23.00
69349;PMS5003;64554;43.452;4.934;2023-01-30T01:24:37;45.67;38.67;23.00
69349;PMS5003;64554;43.452;4.934;2023-01-30T01:27:04;47.50;40.00;21.00
69349;PMS5003;64554;43.452;4.934;2023-01-30T01:29:30;42.25;38.00;23.00
69349;PMS5003;64554;43.452;4.934;2023-01-30T01:31:57;47.75;39.75;21.50
69349;PMS5003;64554;43.452;4.934;2023-01-30T01:34:23;43.75;39.00;23.00
69349;PMS5003;64554;43.452;4.934;2023-01-30T01:36:50;47.75;39.50;24.25
69349;PMS5003;64554;43.452;4.934;2023-01-30T01:39:19;43.00;36.00;20.00
69349;PMS5003;64554;43.452;4.934;2023-01-30T01:41:46;44.75;36.50;20.25
69349;PMS5003;64554;43.452;4.934;2023-01-30T01:44:13;46.50;39.75;23.50
69349;PMS5003;64554;43.452;4.934;2023-01-30T01:49:14;44.20;38.80;20.00
69349;PMS5003;64554;43.452;4.934;2023-01-30T01:51:47;42.50;38.50;21.00
69349;PMS5003;64554;43.452;4.934;2023-01-30T01:54:18;54.50;43.50;23.75
69349;PMS5003;64554;43.452;4.934;2023-01-30T01:56:47;49.50;40.50;22.00
69349;PMS5003;64554;43.452;4.934;2023-01-30T01:59:28;43.25;40.00;23.00
69349;PMS5003;64554;43.452;4.934;2023-01-30T02:01:57;50.75;42.00;23.00
69349;PMS5003;64554;43.452;4.934;2023-01-30T02:04:26;44.00;38.00;20.00
69349;PMS5003;64554;43.452;4.934;2023-01-30T02:07:37;52.50;40.75;22.75
69349;PMS5003;64554;43.452;4.934;2023-01-30T02:10:06;47.75;39.00;24.00
69349;PMS5003;64554;43.452;4.934;2023-01-30T02:12:33;50.00;40.80;21.40
69349;PMS5003;64554;43.452;4.934;2023-01-30T02:15:00;45.75;38.00;21.50
69349;PMS5003;64554;43.452;4.934;2023-01-30T02:17:27;47.00;40.00;24.00
69349;PMS5003;64554;43.452;4.934;2023-01-30T02:24:58;45.25;39.00;24.00
69349;PMS5003;64554;43.452;4.934;2023-01-30T02:27:53;46.60;37.80;23.00
69349;PMS5003;64554;43.452;4.934;2023-01-30T02:33:21;44.40;39.40;21.60
69349;PMS5003;64554;43.452;4.934;2023-01-30T02:36:26;42.60;37.20;21.60
69349;PMS5003;64554;43.452;4.934;2023-01-30T02:41:46;50.80;39.80;23.20
69349;PMS5003;64554;43.452;4.934;2023-01-30T02:44:35;47.75;41.25;24.25
69349;PMS5003;64554;43.452;4.934;2023-01-30T02:47:09;46.80;36.80;22.80
69349;PMS5003;64554;43.452;4.934;2023-01-30T02:52:04;44.40;38.40;23.00
69349;PMS5003;64554;43.452;4.934;2023-01-30T02:54:32;49.25;38.75;22.00
69349;PMS5003;64554;43.452;4.934;2023-01-30T02:56:59;46.50;39.75;22.25
69349;PMS5003;64554;43.452;4.934;2023-01-30T03:12:17;41.00;35.00;23.00
69349;PMS5003;64554;43.452;4.934;2023-01-30T03:17:11;46.75;40.00;23.00
69349;PMS5003;64554;43.452;4.934;2023-01-30T03:19:38;57.75;44.00;27.00
69349;PMS5003;64554;43.452;4.934;2023-01-30T03:22:05;48.80;39.20;22.40
69349;PMS5003;64554;43.452;4.934;2023-01-30T03:24:31;48.25;38.75;23.75
69349;PMS5003;64554;43.452;4.934;2023-01-30T03:27:06;45.80;38.40;20.60
69349;PMS5003;64554;43.452;4.934;2023-01-30T03:29:35;49.00;38.00;21.75
69349;PMS5003;64554;43.452;4.934;2023-01-30T03:32:01;46.00;37.75;23.00
69349;PMS5003;64554;43.452;4.934;2023-01-30T03:34:28;41.75;37.00;21.75
69349;PMS5003;64554;43.452;4.934;2023-01-30T03:36:57;45.60;35.80;22.40
69349;PMS5003;64554;43.452;4.934;2023-01-30T03:39:24;49.75;39.50;20.75
69349;PMS5003;64554;43.452;4.934;2023-01-30T03:41:51;48.50;41.50;22.50
69349;PMS5003;64554;43.452;4.934;2023-01-30T03:44:18;45.00;40.00;20.50
69349;PMS5003;64554;43.452;4.934;2023-01-30T03:46:44;46.75;37.50;22.00
69349;PMS5003;64554;43.452;4.934;2023-01-30T03:49:11;49.50;41.50;22.50
69349;PMS5003;64554;43.452;4.934;2023-01-30T03:51:38;41.40;37.80;22.60
69349;PMS5003;64554;43.452;4.934;2023-01-30T03:54:04;44.00;38.40;22.00
69349;PMS5003;64554;43.452;4.934;2023-01-30T03:56:31;48.25;41.25;22.50
69349;PMS5003;64554;43.452;4.934;2023-01-30T03:58:57;48.50;38.00;22.75
69349;PMS5003;64554;43.452;4.934;2023-01-30T04:01:24;48.75;41.25;21.25
69349;PMS5003;64554;43.452;4.934;2023-01-30T04:03:51;46.80;39.80;23.00
69349;PMS5003;64554;43.452;4.934;2023-01-30T04:06:17;47.00;38.40;22.60
69349;PMS5003;64554;43.452;4.934;2023-01-30T04:08:44;54.25;41.25;23.00
69349;PMS5003;64554;43.452;4.934;2023-01-30T04:11:10;56.80;43.00;23.20
69349;PMS5003;64554;43.452;4.934;2023-01-30T04:13:37;40.00;36.75;19.25
69349;PMS5003;64554;43.452;4.934;2023-01-30T04:16:13;49.00;40.80;23.20
69349;PMS5003;64554;43.452;4.934;2023-01-30T04:18:41;48.25;38.75;21.50
69349;PMS5003;64554;43.452;4.934;2023-01-30T04:21:07;44.50;40.50;22.50
69349;PMS5003;64554;43.452;4.934;2023-01-30T04:23:34;43.50;38.50;21.25
69349;PMS5003;64554;43.452;4.934;2023-01-30T04:26:00;51.75;41.00;23.00
69349;PMS5003;64554;43.452;4.934;2023-01-30T04:28:27;45.50;38.25;22.00
69349;PMS5003;64554;43.452;4.934;2023-01-30T04:30:54;44.80;34.20;22.40
69349;PMS5003;64554;43.452;4.934;2023-01-30T04:33:21;46.25;39.75;23.00
69349;PMS5003;64554;43.452;4.934;2023-01-30T04:35:53;43.25;37.00;21.25
69349;PMS5003;64554;43.452;4.934;2023-01-30T04:38:20;45.40;38.00;22.00
69349;PMS5003;64554;43.452;4.934;2023-01-30T04:40:48;50.80;39.20;21.00
69349;PMS5003;64554;43.452;4.934;2023-01-30T04:43:15;41.20;35.20;21.80
69349;PMS5003;64554;43.452;4.934;2023-01-30T04:45:45;48.00;41.00;22.75
69349;PMS5003;64554;43.452;4.934;2023-01-30T04:48:12;46.80;39.80;22.60
69349;PMS5003;64554;43.452;4.934;2023-01-30T04:50:39;41.25;34.25;21.00
69349;PMS5003;64554;43.452;4.934;2023-01-30T04:53:06;41.40;37.40;23.00
69349;PMS5003;64554;43.452;4.934;2023-01-30T04:55:33;42.25;37.50;21.00
69349;PMS5003;64554;43.452;4.934;2023-01-30T04:57:59;50.50;38.00;21.00
69349;PMS5003;64554;43.452;4.934;2023-01-30T05:00:26;38.25;35.25;21.50
69349;PMS5003;64554;43.452;4.934;2023-01-30T05:02:54;41.60;36.40;18.80
69349;PMS5003;64554;43.452;4.934;2023-01-30T05:05:22;43.25;39.25;22.00
69349;PMS5003;64554;43.452;4.934;2023-01-30T05:07:48;40.00;37.00;21.00
69349;PMS5003;64554;43.452;4.934;2023-01-30T05:10:15;41.40;35.00;18.00
69349;PMS5003;64554;43.452;4.934;2023-01-30T05:12:42;40.00;36.20;22.00
69349;PMS5003;64554;43.452;4.934;2023-01-30T05:15:09;50.00;40.00;23.00
69349;PMS5003;64554;43.452;4.934;2023-01-30T05:17:36;45.67;36.33;18.67
69349;PMS5003;64554;43.452;4.934;2023-01-30T05:20:04;51.40;37.60;20.60
69349;PMS5003;64554;43.452;4.934;2023-01-30T05:22:31;45.50;38.50;21.25
69349;PMS5003;64554;43.452;4.934;2023-01-30T05:24:57;44.00;38.00;23.00
69349;PMS5003;64554;43.452;4.934;2023-01-30T05:27:24;43.40;36.60;20.40
69349;PMS5003;64554;43.452;4.934;2023-01-30T05:29:51;41.40;37.00;20.00
69349;PMS5003;64554;43.452;4.934;2023-01-30T05:32:18;45.20;40.20;20.40
69349;PMS5003;64554;43.452;4.934;2023-01-30T05:34:46;46.80;40.80;20.80
69349;PMS5003;64554;43.452;4.934;2023-01-30T05:37:14;49.50;39.00;22.00
69349;PMS5003;64554;43.452;4.934;2023-01-30T05:39:40;53.00;42.00;25.60
69349;PMS5003;64554;43.452;4.934;2023-01-30T05:42:07;45.20;38.40;23.00
69349;PMS5003;64554;43.452;4.934;2023-01-30T05:44:33;40.50;36.50;20.00
69349;PMS5003;64554;43.452;4.934;2023-01-30T05:47:00;52.00;40.00;23.00
69349;PMS5003;64554;43.452;4.934;2023-01-30T05:49:26;48.00;39.75;23.00
69349;PMS5003;64554;43.452;4.934;2023-01-30T05:51:53;47.33;41.00;24.00
69349;PMS5003;64554;43.452;4.934;2023-01-30T05:54:19;53.80;42.20;24.00
69349;PMS5003;64554;43.452;4.934;2023-01-30T05:56:49;52.00;42.60;22.60
69349;PMS5003;64554;43.452;4.934;2023-01-30T05:59:16;52.00;42.00;22.00
69349;PMS5003;64554;43.452;4.934;2023-01-30T06:01:46;41.60;36.60;20.80
69349;PMS5003;64554;43.452;4.934;2023-01-30T06:04:13;46.25;39.00;20.75
69349;PMS5003;64554;43.452;4.934;2023-01-30T06:06:39;53.00;43.00;23.60
69349;PMS5003;64554;43.452;4.934;2023-01-30T06:09:06;48.50;40.50;23.00
69349;PMS5003;64554;43.452;4.934;2023-01-30T06:11:32;48.40;40.20;22.20
69349;PMS5003;64554;43.452;4.934;2023-01-30T06:13:59;48.60;38.00;21.00
69349;PMS5003;64554;43.452;4.934;2023-01-30T06:16:25;47.75;36.00;20.00
69349;PMS5003;64554;43.452;4.934;2023-01-30T06:18:52;43.75;37.50;22.00
69349;PMS5003;64554;43.452;4.934;2023-01-30T06:21:19;38.00;35.75;21.00
69349;PMS5003;64554;43.452;4.934;2023-01-30T06:23:45;53.00;43.00;23.50
69349;PMS5003;64554;43.452;4.934;2023-01-30T06:26:12;47.00;39.33;23.00
69349;PMS5003;64554;43.452;4.934;2023-01-30T06:28:39;55.00;45.50;22.00
69349;PMS5003;64554;43.452;4.934;2023-01-30T06:31:06;41.00;35.00;22.00
69349;PMS5003;64554;43.452;4.934;2023-01-30T06:33:33;40.20;36.60;22.80
69349;PMS5003;64554;43.452;4.934;2023-01-30T06:35:59;45.00;41.00;22.00
69349;PMS5003;64554;43.452;4.934;2023-01-30T06:38:26;50.00;42.00;23.00
69349;PMS5003;64554;43.452;4.934;2023-01-30T06:40:53;56.50;44.75;25.00
69349;PMS5003;64554;43.452;4.934;2023-01-30T06:43:19;47.40;41.00;25.20
69349;PMS5003;64554;43.452;4.934;2023-01-30T06:45:46;44.50;37.50;22.50
69349;PMS5003;64554;43.452;4.934;2023-01-30T06:48:12;57.00;45.00;25.00
69349;PMS5003;64554;43.452;4.934;2023-01-30T06:50:39;54.60;43.40;23.00
69349;PMS5003;64554;43.452;4.934;2023-01-30T06:53:06;46.50;39.50;24.00
69349;PMS5003;64554;43.452;4.934;2023-01-30T06:55:34;48.00;38.25;21.25
69349;PMS5003;64554;43.452;4.934;2023-01-30T06:58:19;39.00;37.00;19.80
69349;PMS5003;64554;43.452;4.934;2023-01-30T07:00:45;44.67;39.33;23.00
69349;PMS5003;64554;43.452;4.934;2023-01-30T07:03:13;52.00;40.20;24.00
69349;PMS5003;64554;43.452;4.934;2023-01-30T07:05:40;48.40;39.80;21.60
69349;PMS5003;64554;43.452;4.934;2023-01-30T07:08:07;42.50;37.00;20.00
69349;PMS5003;64554;43.452;4.934;2023-01-30T07:10:34;45.50;38.25;21.75
69349;PMS5003;64554;43.452;4.934;2023-01-30T07:13:01;47.50;39.00;21.00
69349;PMS5003;64554;43.452;4.934;2023-01-30T07:15:28;41.80;37.00;22.00
69349;PMS5003;64554;43.452;4.934;2023-01-30T07:17:55;50.50;38.00;21.00
69349;PMS5003;64554;43.452;4.934;2023-01-30T07:20:21;45.50;39.75;21.25
69349;PMS5003;64554;43.452;4.934;2023-01-30T07:22:49;41.00;36.00;22.00
69349;PMS5003;64554;43.452;4.934;2023-01-30T07:25:15;42.75;36.00;22.00
69349;PMS5003;64554;43.452;4.934;2023-01-30T07:27:42;49.00;41.00;22.25
69349;PMS5003;64554;43.452;4.934;2023-01-30T07:30:09;40.25;35.25;22.00
69349;PMS5003;64554;43.452;4.934;2023-01-30T07:32:36;47.40;40.20;23.00
69349;PMS5003;64554;43.452;4.934;2023-01-30T07:35:02;47.20;39.00;22.20
69349;PMS5003;64554;43.452;4.934;2023-01-30T07:37:31;36.00;33.50;16.50
69349;PMS5003;64554;43.452;4.934;2023-01-30T07:39:57;48.75;40.50;23.00
69349;PMS5003;64554;43.452;4.934;2023-01-30T07:42:24;44.50;37.50;22.00
69349;PMS5003;64554;43.452;4.934;2023-01-30T07:44:50;40.00;35.50;23.00
69349;PMS5003;64554;43.452;4.934;2023-01-30T07:47:17;41.00;35.00;22.20
69349;PMS5003;64554;43.452;4.934;2023-01-30T07:49:45;49.25;38.00;23.00
69349;PMS5003;64554;43.452;4.934;2023-01-30T07:52:11;43.80;35.60;19.00
69349;PMS5003;64554;43.452;4.934;2023-01-30T07:54:38;40.40;34.80;20.20
69349;PMS5003;64554;43.452;4.934;2023-01-30T07:57:04;48.00;40.25;21.00
69349;PMS5003;64554;43.452;4.934;2023-01-30T07:59:31;34.20;33.40;18.60
69349;PMS5003;64554;43.452;4.934;2023-01-30T08:01:57;43.25;36.50;19.00
69349;PMS5003;64554;43.452;4.934;2023-01-30T08:04:24;37.60;34.40;19.00
69349;PMS5003;64554;43.452;4.934;2023-01-30T08:06:50;45.25;37.00;22.00
69349;PMS5003;64554;43.452;4.934;2023-01-30T08:09:17;35.60;34.00;19.00
69349;PMS5003;64554;43.452;4.934;2023-01-30T08:11:43;40.80;37.20;21.20
69349;PMS5003;64554;43.452;4.934;2023-01-30T08:14:10;44.60;36.80;21.00
69349;PMS5003;64554;43.452;4.934;2023-01-30T08:16:36;42.20;35.60;21.40
69349;PMS5003;64554;43.452;4.934;2023-01-30T08:19:04;36.40;34.00;19.00
69349;PMS5003;64554;43.452;4.934;2023-01-30T08:21:31;37.75;35.00;21.00
69349;PMS5003;64554;43.452;4.934;2023-01-30T08:23:58;35.00;34.00;20.20
69349;PMS5003;64554;43.452;4.934;2023-01-30T08:26:26;49.60;43.60;25.60
69349;PMS5003;64554;43.452;4.934;2023-01-30T08:28:53;85.33;71.33;42.00
69349;PMS5003;64554;43.452;4.934;2023-01-30T08:31:21;92.00;79.75;46.00
69349;PMS5003;64554;43.452;4.934;2023-01-30T08:33:48;57.80;46.00;28.00
69349;PMS5003;64554;43.452;4.934;2023-01-30T08:36:14;66.80;50.60;30.00
69349;PMS5003;64554;43.452;4.934;2023-01-30T08:38:41;66.25;50.75;30.00
69349;PMS5003;64554;43.452;4.934;2023-01-30T08:41:07;79.00;63.25;37.25
69349;PMS5003;64554;43.452;4.934;2023-01-30T08:43:34;90.00;82.20;51.00
69349;PMS5003;64554;43.452;4.934;2023-01-30T08:46:01;57.00;45.60;29.00
69349;PMS5003;64554;43.452;4.934;2023-01-30T08:48:28;61.00;49.00;29.75
69349;PMS5003;64554;43.452;4.934;2023-01-30T08:51:05;61.00;48.00;29.00
69349;PMS5003;64554;43.452;4.934;2023-01-30T08:53:32;66.25;52.75;34.50
69349;PMS5003;64554;43.452;4.934;2023-01-30T08:55:58;76.25;62.50;37.00
69349;PMS5003;64554;43.452;4.934;2023-01-30T08:58:25;74.50;59.25;36.50
69349;PMS5003;64554;43.452;4.934;2023-01-30T09:00:51;52.00;42.00;25.00
69349;PMS5003;64554;43.452;4.934;2023-01-30T09:03:18;44.00;39.00;24.00
69349;PMS5003;64554;43.452;4.934;2023-01-30T09:05:45;50.00;41.25;24.00
69349;PMS5003;64554;43.452;4.934;2023-01-30T09:08:11;38.33;34.33;19.00
69349;PMS5003;64554;43.452;4.934;2023-01-30T09:10:38;40.20;35.00;19.60
69349;PMS5003;64554;43.452;4.934;2023-01-30T09:13:07;47.25;39.25;22.00
69349;PMS5003;64554;43.452;4.934;2023-01-30T09:15:33;49.00;42.00;25.00
69349;PMS5003;64554;43.452;4.934;2023-01-30T09:18:00;46.00;36.50;24.00
69349;PMS5003;64554;43.452;4.934;2023-01-30T09:20:26;41.50;33.50;22.00
69349;PMS5003;64554;43.452;4.934;2023-01-30T09:22:53;38.40;33.40;21.00
69349;PMS5003;64554;43.452;4.934;2023-01-30T09:25:19;39.25;34.75;18.75
69349;PMS5003;64554;43.452;4.934;2023-01-30T09:27:47;42.25;34.75;22.00
69349;PMS5003;64554;43.452;4.934;2023-01-30T09:30:13;41.33;32.67;20.00
69349;PMS5003;64554;43.452;4.934;2023-01-30T09:32:40;50.25;41.25;24.75
69349;PMS5003;64554;43.452;4.934;2023-01-30T09:35:06;35.00;31.00;18.25
69349;PMS5003;64554;43.452;4.934;2023-01-30T09:37:33;34.50;32.00;20.00
69349;PMS5003;64554;43.452;4.934;2023-01-30T09:40:00;37.50;33.00;19.25
69349;PMS5003;64554;43.452;4.934;2023-01-30T09:52:55;36.00;32.00;18.60
69349;PMS5003;64554;43.452;4.934;2023-01-30T09:55:23;29.60;28.60;17.60
69349;PMS5003;64554;43.452;4.934;2023-01-30T09:57:51;27.40;27.40;18.00
69349;PMS5003;64554;43.452;4.934;2023-01-30T10:03:03;41.00;34.75;22.00
69349;PMS5003;64554;43.452;4.934;2023-01-30T10:10:56;25.80;24.40;15.20
69349;PMS5003;64554;43.452;4.934;2023-01-30T10:26:11;29.60;29.60;17.00
69349;PMS5003;64554;43.452;4.934;2023-01-30T10:28:41;33.50;29.50;19.25
69349;PMS5003;64554;43.452;4.934;2023-01-30T10:31:15;39.40;34.40;20.00
69349;PMS5003;64554;43.452;4.934;2023-01-30T10:33:55;36.50;32.50;20.50
69349;PMS5003;64554;43.452;4.934;2023-01-30T10:36:28;28.40;27.80;18.20
69349;PMS5003;64554;43.452;4.934;2023-01-30T10:38:58;28.00;25.00;13.50
69349;PMS5003;64554;43.452;4.934;2023-01-30T10:44:00;21.00;20.50;13.25
69349;PMS5003;64554;43.452;4.934;2023-01-30T10:48:58;26.00;24.00;14.00
69349;PMS5003;64554;43.452;4.934;2023-01-30T10:53:59;29.00;29.00;19.00
69349;PMS5003;64554;43.452;4.934;2023-01-30T10:59:06;36.50;31.75;19.75
69349;PMS5003;64554;43.452;4.934;2023-01-30T11:01:43;28.00;26.00;15.00
69349;PMS5003;64554;43.452;4.934;2023-01-30T11:04:17;32.20;31.00;19.20
69349;PMS5003;64554;43.452;4.934;2023-01-30T11:06:48;36.80;32.40;19.40
69349;PMS5003;64554;43.452;4.934;2023-01-30T11:09:15;28.00;27.00;16.00
69349;PMS5003;64554;43.452;4.934;2023-01-30T11:11:50;20.25;19.00;12.25
69349;PMS5003;64554;43.452;4.934;2023-01-30T11:14:17;22.20;22.20;13.00
69349;PMS5003;64554;43.452;4.934;2023-01-30T11:19:13;23.00;21.00;13.00
69349;PMS5003;64554;43.452;4.934;2023-01-30T11:21:51;24.60;22.40;15.00
69349;PMS5003;64554;43.452;4.934;2023-01-30T11:24:22;21.00;19.40;11.60
69349;PMS5003;64554;43.452;4.934;2023-01-30T11:26:49;23.40;20.40;13.80
69349;PMS5003;64554;43.452;4.934;2023-01-30T11:31:48;21.80;21.40;12.80
69349;PMS5003;64554;43.452;4.934;2023-01-30T11:34:17;21.00;19.00;11.00
69349;PMS5003;64554;43.452;4.934;2023-01-30T11:36:44;20.00;20.00;13.00
69349;PMS5003;64554;43.452;4.934;2023-01-30T11:44:24;25.00;23.00;14.00
69349;PMS5003;64554;43.452;4.934;2023-01-30T11:46:51;26.00;26.00;12.40
69349;PMS5003;64554;43.452;4.934;2023-01-30T11:49:18;23.00;23.00;15.20
69349;PMS5003;64554;43.452;4.934;2023-01-30T11:52:07;21.40;21.40;14.40
69349;PMS5003;64554;43.452;4.934;2023-01-30T11:54:34;24.25;20.75;13.00
69349;PMS5003;64554;43.452;4.934;2023-01-30T11:57:03;23.40;22.40;12.60
69349;PMS5003;64554;43.452;4.934;2023-01-30T11:59:35;19.75;18.00;11.50
69349;PMS5003;64554;43.452;4.934;2023-01-30T12:04:43;20.80;19.80;14.80
69349;PMS5003;64554;43.452;4.934;2023-01-30T12:07:19;21.00;20.50;12.00
69349;PMS5003;64554;43.452;4.934;2023-01-30T12:09:46;18.60;16.60;12.00
69349;PMS5003;64554;43.452;4.934;2023-01-30T12:17:32;19.00;19.00;13.00
69349;PMS5003;64554;43.452;4.934;2023-01-30T12:25:33;20.80;19.80;12.40
69349;PMS5003;64554;43.452;4.934;2023-01-30T12:28:04;20.00;18.00;12.00
69349;PMS5003;64554;43.452;4.934;2023-01-30T12:30:50;22.00;21.00;12.00
69349;PMS5003;64554;43.452;4.934;2023-01-30T12:33:18;20.60;17.60;11.40
69349;PMS5003;64554;43.452;4.934;2023-01-30T12:41:47;22.50;20.50;11.00
69349;PMS5003;64554;43.452;4.934;2023-01-30T12:43:58;20.00;18.40;12.00
69349;PMS5003;64554;43.452;4.934;2023-01-30T12:46:45;19.75;18.00;10.50
69349;PMS5003;64554;43.452;4.934;2023-01-30T12:49:35;19.00;17.00;10.00
69349;PMS5003;64554;43.452;4.934;2023-01-30T12:52:24;22.40;17.40;10.00
69349;PMS5003;64554;43.452;4.934;2023-01-30T13:02:51;20.60;20.60;12.00
69349;PMS5003;64554;43.452;4.934;2023-01-30T13:13:29;21.00;19.60;13.40
69349;PMS5003;64554;43.452;4.934;2023-01-30T13:16:06;26.75;25.25;14.00
69349;PMS5003;64554;43.452;4.934;2023-01-30T13:18:54;33.00;29.75;15.00
69349;PMS5003;64554;43.452;4.934;2023-01-30T13:21:24;25.00;23.75;11.25
69349;PMS5003;64554;43.452;4.934;2023-01-30T13:24:38;26.75;26.25;16.00
69349;PMS5003;64554;43.452;4.934;2023-01-30T13:26:43;22.40;20.40;11.40
69349;PMS5003;64554;43.452;4.934;2023-01-30T13:29:14;20.00;17.00;9.00
69349;PMS5003;64554;43.452;4.934;2023-01-30T13:31:48;21.00;17.00;11.00
69349;PMS5003;64554;43.452;4.934;2023-01-30T13:34:31;14.00;14.00;10.00
69349;PMS5003;64554;43.452;4.934;2023-01-30T13:37:04;25.20;23.40;15.00
69349;PMS5003;64554;43.452;4.934;2023-01-30T13:39:34;30.00;25.25;17.00
69349;PMS5003;64554;43.452;4.934;2023-01-30T13:42:11;21.00;19.00;12.00
69349;PMS5003;64554;43.452;4.934;2023-01-30T13:44:39;19.20;19.20;12.80
69349;PMS5003;64554;43.452;4.934;2023-01-30T13:49:58;22.00;21.20;11.40
69349;PMS5003;64554;43.452;4.934;2023-01-30T13:52:36;21.25;19.25;11.25
69349;PMS5003;64554;43.452;4.934;2023-01-30T13:57:49;20.60;16.00;10.60
69349;PMS5003;64554;43.452;4.934;2023-01-30T14:00:32;27.40;24.40;15.00
69349;PMS5003;64554;43.452;4.934;2023-01-30T14:08:20;25.40;24.80;18.20
69349;PMS5003;64554;43.452;4.934;2023-01-30T14:10:48;28.00;26.00;18.00
69349;PMS5003;64554;43.452;4.934;2023-01-30T14:13:15;17.00;17.00;10.75
69349;PMS5003;64554;43.452;4.934;2023-01-30T14:15:52;19.40;19.40;13.60
69349;PMS5003;64554;43.452;4.934;2023-01-30T14:18:26;19.25;19.25;12.00
69349;PMS5003;64554;43.452;4.934;2023-01-30T14:21:10;21.00;19.80;11.40
69349;PMS5003;64554;43.452;4.934;2023-01-30T14:23:37;25.60;24.20;13.60
69349;PMS5003;64554;43.452;4.934;2023-01-30T14:26:05;31.00;29.00;17.60
69349;PMS5003;64554;43.452;4.934;2023-01-30T14:30:58;20.25;17.75;11.25
69349;PMS5003;64554;43.452;4.934;2023-01-30T14:38:30;17.00;15.40;11.00
69349;PMS5003;64554;43.452;4.934;2023-01-30T14:45:54;28.60;23.80;14.60
69349;PMS5003;64554;43.452;4.934;2023-01-30T14:53:48;24.40;22.00;12.00
69349;PMS5003;64554;43.452;4.934;2023-01-30T14:56:15;25.75;23.25;13.50
69349;PMS5003;64554;43.452;4.934;2023-01-30T14:58:50;20.00;18.00;13.00
69349;PMS5003;64554;43.452;4.934;2023-01-30T15:01:17;27.40;27.00;16.80
69349;PMS5003;64554;43.452;4.934;2023-01-30T15:03:45;29.00;27.50;18.00
69349;PMS5003;64554;43.452;4.934;2023-01-30T15:06:13;26.80;21.80;15.00
69349;PMS5003;64554;43.452;4.934;2023-01-30T15:08:40;31.00;29.25;18.00
69349;PMS5003;64554;43.452;4.934;2023-01-30T15:13:43;28.75;28.50;17.50
69349;PMS5003;64554;43.452;4.934;2023-01-30T15:16:22;20.00;18.00;12.00
69349;PMS5003;64554;43.452;4.934;2023-01-30T15:31:53;27.00;27.00;16.00
69349;PMS5003;64554;43.452;4.934;2023-01-30T15:34:20;30.80;28.40;19.40
69349;PMS5003;64554;43.452;4.934;2023-01-30T15:36:47;49.50;42.50;28.00
69349;PMS5003;64554;43.452;4.934;2023-01-30T15:39:20;31.00;29.00;20.00
69349;PMS5003;64554;43.452;4.934;2023-01-30T15:41:47;22.25;20.25;12.00
69349;PMS5003;64554;43.452;4.934;2023-01-30T15:44:20;39.00;34.20;22.40
69349;PMS5003;64554;43.452;4.934;2023-01-30T15:49:47;28.80;27.80;20.20
69349;PMS5003;64554;43.452;4.934;2023-01-30T15:52:20;31.00;30.50;18.50
69349;PMS5003;64554;43.452;4.934;2023-01-30T15:54:47;17.50;15.00;10.00
69349;PMS5003;64554;43.452;4.934;2023-01-30T15:57:16;19.00;18.00;12.00
69349;PMS5003;64554;43.452;4.934;2023-01-30T15:59:46;23.20;21.40;15.00
69349;PMS5003;64554;43.452;4.934;2023-01-30T16:02:14;28.60;26.40;17.00
69349;PMS5003;64554;43.452;4.934;2023-01-30T16:04:41;14.60;14.00;9.00
69349;PMS5003;64554;43.452;4.934;2023-01-30T16:07:30;20.80;19.20;12.20
69349;PMS5003;64554;43.452;4.934;2023-01-30T16:09:55;18.40;18.40;10.00
69349;PMS5003;64554;43.452;4.934;2023-01-30T16:12:33;23.60;23.60;15.00
69349;PMS5003;64554;43.452;4.934;2023-01-30T16:14:59;26.40;20.80;13.00
69349;PMS5003;64554;43.452;4.934;2023-01-30T16:17:45;13.25;10.25;7.00
69349;PMS5003;64554;43.452;4.934;2023-01-30T16:20:14;15.33;14.00;10.00
69349;PMS5003;64554;43.452;4.934;2023-01-30T16:22:42;17.40;17.40;11.00
69349;PMS5003;64554;43.452;4.934;2023-01-30T16:25:18;12.00;11.80;8.00
69349;PMS5003;64554;43.452;4.934;2023-01-30T16:27:47;14.50;14.00;9.00
69349;PMS5003;64554;43.452;4.934;2023-01-30T16:30:22;17.00;14.75;12.00
69349;PMS5003;64554;43.452;4.934;2023-01-30T16:32:50;8.80;8.00;6.00
69349;PMS5003;64554;43.452;4.934;2023-01-30T16:37:53;9.00;9.00;5.00
69349;PMS5003;64554;43.452;4.934;2023-01-30T16:40:25;13.60;13.60;10.00
69349;PMS5003;64554;43.452;4.934;2023-01-30T16:42:59;10.80;9.00;5.80
69349;PMS5003;64554;43.452;4.934;2023-01-30T16:50:45;9.60;9.60;6.00